createdAt,value
2022-11-03T00:00:46.281Z,0.00
2022-11-03T00:01:46.403Z,0.00
2022-11-03T00:02:46.313Z,0.00
2022-11-03T00:03:46.232Z,0.00
2022-11-03T00:04:46.223Z,0.00
2022-11-03T00:05:46.216Z,0.00
2022-11-03T00:06:46.205Z,0.00
2022-11-03T00:07:46.197Z,0.00
2022-11-03T00:08:46.188Z,0.00
2022-11-03T00:09:46.159Z,0.00
2022-11-03T00:10:46.148Z,0.00
2022-11-03T00:11:46.157Z,0.00
2022-11-03T00:12:46.131Z,0.00
2022-11-03T00:13:46.116Z,0.00
2022-11-03T00:14:46.107Z,0.00
2022-11-03T00:15:46.387Z,0.00
2022-11-03T00:16:46.100Z,0.00
2022-11-03T00:17:46.100Z,0.00
2022-11-03T00:18:46.047Z,0.00
2022-11-03T00:19:46.047Z,0.00
2022-11-03T00:20:46.028Z,0.00
2022-11-03T00:21:46.049Z,0.00
2022-11-03T00:22:46.019Z,0.00
2022-11-03T00:23:46.009Z,0.00
2022-11-03T00:24:46.019Z,0.00
2022-11-03T00:25:45.977Z,0.00
2022-11-03T00:26:46.003Z,0.00
2022-11-03T00:27:45.960Z,0.00
2022-11-03T00:28:45.946Z,0.00
2022-11-03T00:29:45.934Z,0.00
2022-11-03T00:30:45.921Z,0.00
2022-11-03T00:31:45.941Z,0.00
2022-11-03T00:32:45.898Z,0.00
2022-11-03T00:33:45.880Z,0.00
2022-11-03T00:34:45.884Z,0.00
2022-11-03T00:35:46.130Z,0.00
2022-11-03T00:36:45.868Z,0.00
2022-11-03T00:37:46.134Z,0.00
2022-11-03T00:38:46.115Z,0.00
2022-11-03T00:39:45.859Z,0.00
2022-11-03T00:40:45.810Z,0.00
2022-11-03T00:41:45.820Z,0.00
2022-11-03T00:42:45.780Z,0.00
2022-11-03T00:43:45.770Z,0.00
2022-11-03T00:44:46.086Z,0.00
2022-11-03T00:45:46.532Z,0.00
2022-11-03T00:46:45.758Z,0.00
2022-11-03T00:47:45.761Z,0.00
2022-11-03T00:48:46.009Z,0.00
2022-11-03T00:49:45.705Z,0.00
2022-11-03T00:50:45.690Z,0.00
2022-11-03T00:51:45.690Z,0.00
2022-11-03T00:52:45.672Z,0.00
2022-11-03T00:53:45.651Z,0.00
2022-11-03T00:54:45.880Z,0.00
2022-11-03T00:55:45.631Z,0.00
2022-11-03T00:56:45.642Z,0.00
2022-11-03T00:57:45.622Z,0.00
2022-11-03T00:58:45.602Z,0.00
2022-11-03T00:59:45.586Z,0.00
2022-11-03T01:00:45.633Z,0.00
2022-11-03T01:01:47.450Z,0.00
2022-11-03T01:02:45.563Z,0.00
2022-11-03T01:03:45.534Z,0.00
2022-11-03T01:04:45.531Z,0.00
2022-11-03T01:05:45.789Z,0.00
2022-11-03T01:06:45.515Z,0.00
2022-11-03T01:07:45.564Z,0.00
2022-11-03T01:08:46.389Z,0.00
2022-11-03T01:09:45.477Z,0.00
2022-11-03T01:10:45.455Z,0.00
2022-11-03T01:11:45.483Z,0.00
2022-11-03T01:12:45.766Z,0.00
2022-11-03T01:13:45.435Z,0.00
2022-11-03T01:14:45.687Z,0.00
2022-11-03T01:15:45.405Z,0.00
2022-11-03T01:16:45.394Z,0.00
2022-11-03T01:17:45.385Z,0.00
2022-11-03T01:18:45.374Z,0.00
2022-11-03T01:19:45.348Z,0.00
2022-11-03T01:20:45.335Z,0.00
2022-11-03T01:21:45.345Z,0.00
2022-11-03T01:22:45.328Z,0.00
2022-11-03T01:23:45.294Z,0.00
2022-11-03T01:24:45.293Z,0.00
2022-11-03T01:25:45.308Z,0.00
2022-11-03T01:26:45.272Z,0.00
2022-11-03T01:27:45.259Z,0.00
2022-11-03T01:28:45.257Z,0.00
2022-11-03T01:29:45.243Z,0.00
2022-11-03T01:30:45.215Z,0.00
2022-11-03T01:31:45.239Z,0.00
2022-11-03T01:32:45.220Z,0.00
2022-11-03T01:33:45.196Z,0.00
2022-11-03T01:34:45.176Z,0.00
2022-11-03T01:35:45.427Z,0.00
2022-11-03T01:36:45.185Z,0.00
2022-11-03T01:37:45.143Z,0.00
2022-11-03T01:38:45.409Z,0.00
2022-11-03T01:39:45.127Z,0.00
2022-11-03T01:40:45.120Z,0.00
2022-11-03T01:41:45.366Z,0.00
2022-11-03T01:42:45.097Z,0.00
2022-11-03T01:43:45.068Z,0.00
2022-11-03T01:44:45.068Z,0.00
2022-11-03T01:45:45.061Z,0.00
2022-11-03T01:46:45.058Z,0.00
2022-11-03T01:47:45.069Z,0.00
2022-11-03T01:48:45.035Z,0.00
2022-11-03T01:49:45.018Z,0.00
2022-11-03T01:50:45.008Z,0.00
2022-11-03T01:51:45.298Z,0.00
2022-11-03T01:52:45.051Z,0.00
2022-11-03T01:53:44.960Z,0.00
2022-11-03T01:54:44.962Z,0.00
2022-11-03T01:55:44.945Z,0.00
2022-11-03T01:56:45.028Z,0.00
2022-11-03T01:57:44.929Z,0.00
2022-11-03T01:58:44.924Z,0.00
2022-11-03T01:59:44.908Z,0.00
2022-11-03T02:00:44.949Z,0.00
2022-11-03T02:01:46.027Z,0.00
2022-11-03T02:02:44.862Z,0.00
2022-11-03T02:03:44.840Z,0.00
2022-11-03T02:04:44.829Z,0.00
2022-11-03T02:05:44.834Z,0.00
2022-11-03T02:06:44.819Z,0.00
2022-11-03T02:07:44.797Z,0.00
2022-11-03T02:08:44.804Z,0.00
2022-11-03T02:09:45.094Z,0.00
2022-11-03T02:10:44.760Z,0.00
2022-11-03T02:11:44.761Z,0.00
2022-11-03T02:12:44.782Z,0.00
2022-11-03T02:13:44.730Z,0.00
2022-11-03T02:14:44.721Z,0.00
2022-11-03T02:15:44.721Z,0.00
2022-11-03T02:16:46.398Z,0.00
2022-11-03T02:17:44.683Z,0.00
2022-11-03T02:18:44.689Z,0.00
2022-11-03T02:19:44.679Z,0.00
2022-11-03T02:20:44.651Z,0.00
2022-11-03T02:21:44.651Z,0.00
2022-11-03T02:22:44.665Z,0.00
2022-11-03T02:23:44.612Z,0.00
2022-11-03T02:24:47.508Z,0.00
2022-11-03T02:25:45.604Z,0.00
2022-11-03T02:26:44.851Z,0.00
2022-11-03T02:27:44.571Z,0.00
2022-11-03T02:28:44.954Z,0.00
2022-11-03T02:29:44.824Z,0.00
2022-11-03T02:30:44.543Z,0.00
2022-11-03T02:31:44.532Z,0.00
2022-11-03T02:32:44.569Z,0.00
2022-11-03T02:33:44.856Z,0.00
2022-11-03T02:34:44.501Z,0.00
2022-11-03T02:35:44.503Z,0.00
2022-11-03T02:36:44.503Z,0.00
2022-11-03T02:37:44.454Z,0.00
2022-11-03T02:38:44.474Z,0.00
2022-11-03T02:39:44.707Z,0.00
2022-11-03T02:40:44.422Z,0.00
2022-11-03T02:41:44.420Z,0.00
2022-11-03T02:42:44.419Z,0.00
2022-11-03T02:43:44.453Z,0.00
2022-11-03T02:44:44.383Z,0.00
2022-11-03T02:45:44.390Z,0.00
2022-11-03T02:46:44.376Z,0.00
2022-11-03T02:47:44.349Z,0.00
2022-11-03T02:48:44.333Z,0.00
2022-11-03T02:49:44.400Z,0.00
2022-11-03T02:50:44.314Z,0.00
2022-11-03T02:51:44.313Z,0.00
2022-11-03T02:52:44.340Z,0.00
2022-11-03T02:53:44.554Z,0.00
2022-11-03T02:54:44.257Z,0.00
2022-11-03T02:55:44.264Z,0.00
2022-11-03T02:56:44.275Z,0.00
2022-11-03T02:57:44.243Z,0.00
2022-11-03T02:58:44.233Z,0.00
2022-11-03T02:59:44.227Z,0.00
2022-11-03T03:00:44.313Z,0.00
2022-11-03T03:01:44.351Z,0.00
2022-11-03T03:02:44.215Z,0.00
2022-11-03T03:03:44.209Z,0.00
2022-11-03T03:04:44.145Z,0.00
2022-11-03T03:05:45.432Z,0.00
2022-11-03T03:06:44.142Z,0.00
2022-11-03T03:07:44.116Z,0.00
2022-11-03T03:08:44.095Z,0.00
2022-11-03T03:09:44.376Z,0.00
2022-11-03T03:10:44.088Z,0.00
2022-11-03T03:11:44.095Z,0.00
2022-11-03T03:12:44.078Z,0.00
2022-11-03T03:13:44.126Z,0.00
2022-11-03T03:14:44.038Z,0.00
2022-11-03T03:15:44.306Z,0.00
2022-11-03T03:16:44.020Z,0.00
2022-11-03T03:17:43.995Z,0.00
2022-11-03T03:18:44.002Z,0.00
2022-11-03T03:19:43.983Z,0.00
2022-11-03T03:20:44.236Z,0.00
2022-11-03T03:21:43.967Z,0.00
2022-11-03T03:22:43.988Z,0.00
2022-11-03T03:23:44.237Z,0.00
2022-11-03T03:24:43.922Z,0.00
2022-11-03T03:25:43.920Z,0.00
2022-11-03T03:26:43.939Z,0.00
2022-11-03T03:27:43.907Z,0.00
2022-11-03T03:28:43.895Z,0.00
2022-11-03T03:29:43.878Z,0.00
2022-11-03T03:30:43.885Z,0.00
2022-11-03T03:31:43.858Z,0.00
2022-11-03T03:32:44.119Z,0.00
2022-11-03T03:33:47.513Z,0.00
2022-11-03T03:34:44.083Z,0.00
2022-11-03T03:35:43.791Z,0.00
2022-11-03T03:36:43.826Z,0.00
2022-11-03T03:37:43.768Z,0.00
2022-11-03T03:38:43.770Z,0.00
2022-11-03T03:39:43.780Z,0.00
2022-11-03T03:40:43.754Z,0.00
2022-11-03T03:41:43.739Z,0.00
2022-11-03T03:42:44.020Z,0.00
2022-11-03T03:43:43.747Z,0.00
2022-11-03T03:44:43.689Z,0.00
2022-11-03T03:45:43.682Z,0.00
2022-11-03T03:46:43.692Z,0.00
2022-11-03T03:47:43.651Z,0.00
2022-11-03T03:48:43.641Z,0.00
2022-11-03T03:49:44.742Z,0.00
2022-11-03T03:50:43.631Z,0.00
2022-11-03T03:51:43.602Z,0.00
2022-11-03T03:52:43.610Z,0.00
2022-11-03T03:53:43.602Z,0.00
2022-11-03T03:54:43.571Z,0.00
2022-11-03T03:55:43.553Z,0.00
2022-11-03T03:56:43.610Z,0.00
2022-11-03T03:57:43.581Z,0.00
2022-11-03T03:58:44.382Z,0.00
2022-11-03T03:59:43.808Z,0.00
2022-11-03T04:00:43.550Z,0.00
2022-11-03T04:01:43.690Z,0.00
2022-11-03T04:02:43.505Z,0.00
2022-11-03T04:03:43.493Z,0.00
2022-11-03T04:04:43.462Z,0.00
2022-11-03T04:05:43.445Z,0.00
2022-11-03T04:06:43.454Z,0.00
2022-11-03T04:07:43.948Z,0.00
2022-11-03T04:08:43.412Z,0.00
2022-11-03T04:09:44.364Z,0.00
2022-11-03T04:10:43.412Z,0.00
2022-11-03T04:11:43.404Z,0.00
2022-11-03T04:12:43.371Z,0.00
2022-11-03T04:13:43.362Z,0.00
2022-11-03T04:14:43.353Z,0.00
2022-11-03T04:15:43.329Z,0.00
2022-11-03T04:16:43.370Z,0.00
2022-11-03T04:17:43.346Z,0.00
2022-11-03T04:18:43.313Z,0.00
2022-11-03T04:19:43.297Z,0.00
2022-11-03T04:20:43.305Z,0.00
2022-11-03T04:21:43.281Z,0.00
2022-11-03T04:22:43.253Z,0.00
2022-11-03T04:23:43.254Z,0.00
2022-11-03T04:24:43.244Z,0.00
2022-11-03T04:25:43.219Z,0.00
2022-11-03T04:26:43.497Z,0.00
2022-11-03T04:27:43.481Z,0.00
2022-11-03T04:28:43.187Z,0.00
2022-11-03T04:29:43.188Z,0.00
2022-11-03T04:30:43.438Z,0.00
2022-11-03T04:31:43.176Z,0.00
2022-11-03T04:32:43.135Z,0.00
2022-11-03T04:33:43.414Z,0.00
2022-11-03T04:34:43.165Z,0.00
2022-11-03T04:35:43.105Z,0.00
2022-11-03T04:36:43.119Z,0.00
2022-11-03T04:37:47.329Z,0.00
2022-11-03T04:38:43.066Z,0.00
2022-11-03T04:40:43.049Z,0.00
2022-11-03T04:41:43.056Z,0.00
2022-11-03T04:42:43.026Z,0.00
2022-11-03T04:43:43.287Z,0.00
2022-11-03T04:44:43.017Z,0.00
2022-11-03T04:45:42.997Z,0.00
2022-11-03T04:46:42.998Z,0.00
2022-11-03T04:47:42.969Z,0.00
2022-11-03T04:48:42.954Z,0.00
2022-11-03T04:49:42.945Z,0.00
2022-11-03T04:50:46.689Z,0.00
2022-11-03T04:51:42.938Z,0.00
2022-11-03T04:52:42.920Z,0.00
2022-11-03T04:53:42.936Z,0.00
2022-11-03T04:54:42.878Z,0.00
2022-11-03T04:55:42.878Z,0.00
2022-11-03T04:56:42.878Z,0.00
2022-11-03T04:57:42.850Z,0.00
2022-11-03T04:58:42.837Z,0.00
2022-11-03T04:59:42.835Z,0.00
2022-11-03T05:00:43.193Z,0.00
2022-11-03T05:01:43.314Z,0.00
2022-11-03T05:02:42.797Z,0.00
2022-11-03T05:03:42.790Z,0.00
2022-11-03T05:04:42.778Z,0.00
2022-11-03T05:05:42.760Z,0.00
2022-11-03T05:06:44.000Z,0.00
2022-11-03T05:07:42.761Z,0.00
2022-11-03T05:08:42.743Z,0.00
2022-11-03T05:09:43.055Z,0.00
2022-11-03T05:10:43.021Z,0.00
2022-11-03T05:11:42.711Z,0.00
2022-11-03T05:12:42.690Z,0.00
2022-11-03T05:13:42.682Z,0.00
2022-11-03T05:14:42.709Z,0.00
2022-11-03T05:15:42.647Z,0.00
2022-11-03T05:16:42.655Z,0.00
2022-11-03T05:17:42.641Z,0.00
2022-11-03T05:18:42.610Z,0.00
2022-11-03T05:19:42.589Z,0.00
2022-11-03T05:20:42.601Z,0.00
2022-11-03T05:21:50.865Z,0.00
2022-11-03T05:22:42.575Z,0.00
2022-11-03T05:23:42.576Z,0.00
2022-11-03T05:24:42.552Z,0.00
2022-11-03T05:25:42.537Z,0.00
2022-11-03T05:26:43.618Z,0.00
2022-11-03T05:27:42.508Z,0.00
2022-11-03T05:28:42.508Z,0.00
2022-11-03T05:29:42.496Z,0.00
2022-11-03T05:30:42.483Z,0.00
2022-11-03T05:31:42.478Z,0.00
2022-11-03T05:32:42.729Z,0.00
2022-11-03T05:33:42.709Z,0.00
2022-11-03T05:34:42.431Z,0.00
2022-11-03T05:35:42.430Z,0.00
2022-11-03T05:36:42.446Z,0.00
2022-11-03T05:37:42.390Z,0.00
2022-11-03T05:38:42.396Z,0.00
2022-11-03T05:39:42.388Z,0.00
2022-11-03T05:40:42.368Z,0.00
2022-11-03T05:41:42.360Z,0.00
2022-11-03T05:42:42.354Z,0.00
2022-11-03T05:43:42.339Z,0.00
2022-11-03T05:44:42.330Z,0.00
2022-11-03T05:45:42.308Z,0.00
2022-11-03T05:46:42.579Z,0.00
2022-11-03T05:47:42.292Z,0.00
2022-11-03T05:48:42.273Z,0.00
2022-11-03T05:49:42.272Z,0.00
2022-11-03T05:50:42.259Z,0.00
2022-11-03T05:51:42.262Z,0.00
2022-11-03T05:52:42.240Z,0.00
2022-11-03T05:53:43.081Z,0.00
2022-11-03T05:54:42.208Z,0.00
2022-11-03T05:55:42.193Z,0.00
2022-11-03T05:56:42.203Z,0.00
2022-11-03T05:57:42.188Z,4.00
2022-11-03T05:58:42.164Z,4.00
2022-11-03T05:59:42.448Z,0.00
2022-11-03T06:00:48.184Z,4.00
2022-11-03T06:01:43.217Z,4.00
2022-11-03T06:02:42.189Z,4.00
2022-11-03T06:03:42.137Z,4.00
2022-11-03T06:04:42.082Z,4.00
2022-11-03T06:05:42.074Z,4.00
2022-11-03T06:06:42.333Z,8.00
2022-11-03T06:07:42.782Z,8.00
2022-11-03T06:08:45.013Z,12.00
2022-11-03T06:09:42.304Z,12.00
2022-11-03T06:10:42.990Z,16.00
2022-11-03T06:11:42.024Z,20.00
2022-11-03T06:12:42.007Z,24.00
2022-11-03T06:13:42.003Z,24.00
2022-11-03T06:14:41.972Z,28.00
2022-11-03T06:15:41.962Z,36.00
2022-11-03T06:16:42.924Z,36.00
2022-11-03T06:17:41.951Z,44.00
2022-11-03T06:18:41.945Z,52.00
2022-11-03T06:19:43.141Z,56.00
2022-11-03T06:20:42.155Z,64.00
2022-11-03T06:21:44.511Z,68.00
2022-11-03T06:22:41.905Z,76.00
2022-11-03T06:23:42.755Z,80.00
2022-11-03T06:24:41.867Z,84.00
2022-11-03T06:25:41.836Z,92.00
2022-11-03T06:26:42.096Z,96.00
2022-11-03T06:27:41.825Z,100.00
2022-11-03T06:28:41.816Z,108.00
2022-11-03T06:29:42.129Z,116.00
2022-11-03T06:30:43.626Z,124.00
2022-11-03T06:31:41.778Z,132.00
2022-11-03T06:32:41.787Z,144.00
2022-11-03T06:33:42.025Z,156.00
2022-11-03T06:34:41.745Z,172.00
2022-11-03T06:35:41.736Z,188.00
2022-11-03T06:36:41.994Z,208.00
2022-11-03T06:37:41.706Z,228.00
2022-11-03T06:38:41.705Z,248.00
2022-11-03T06:39:41.693Z,268.00
2022-11-03T06:40:41.978Z,288.00
2022-11-03T06:41:41.670Z,308.00
2022-11-03T06:42:41.678Z,332.00
2022-11-03T06:43:41.645Z,348.00
2022-11-03T06:44:41.626Z,376.00
2022-11-03T06:45:41.619Z,396.00
2022-11-03T06:46:41.807Z,420.00
2022-11-03T06:47:41.588Z,444.00
2022-11-03T06:48:41.584Z,472.00
2022-11-03T06:49:41.838Z,492.00
2022-11-03T06:50:45.475Z,512.00
2022-11-03T06:51:41.547Z,532.00
2022-11-03T06:52:41.883Z,552.00
2022-11-03T06:53:41.558Z,572.00
2022-11-03T06:54:41.507Z,592.00
2022-11-03T06:55:41.508Z,608.00
2022-11-03T06:56:41.488Z,624.00
2022-11-03T06:57:41.487Z,640.00
2022-11-03T06:58:41.465Z,660.00
2022-11-03T06:59:41.484Z,676.00
2022-11-03T07:00:43.731Z,692.00
2022-11-03T07:01:41.521Z,708.00
2022-11-03T07:02:41.627Z,724.00
2022-11-03T07:03:41.518Z,744.00
2022-11-03T07:04:41.393Z,764.00
2022-11-03T07:05:41.400Z,788.00
2022-11-03T07:06:41.662Z,812.00
2022-11-03T07:07:41.378Z,840.00
2022-11-03T07:08:41.347Z,872.00
2022-11-03T07:09:41.351Z,908.00
2022-11-03T07:10:41.349Z,944.00
2022-11-03T07:11:41.310Z,984.00
2022-11-03T07:12:41.339Z,1028.00
2022-11-03T07:13:41.324Z,1076.00
2022-11-03T07:14:41.279Z,1124.00
2022-11-03T07:15:41.326Z,1172.00
2022-11-03T07:16:41.274Z,1224.00
2022-11-03T07:17:41.269Z,1284.00
2022-11-03T07:18:41.244Z,1352.00
2022-11-03T07:19:41.255Z,1428.00
2022-11-03T07:20:41.201Z,1508.00
2022-11-03T07:21:41.245Z,1600.00
2022-11-03T07:22:41.209Z,1696.00
2022-11-03T07:23:44.754Z,1812.00
2022-11-03T07:24:42.163Z,1928.00
2022-11-03T07:25:41.455Z,2048.00
2022-11-03T07:26:41.187Z,2184.00
2022-11-03T07:27:41.149Z,2312.00
2022-11-03T07:28:41.441Z,2436.00
2022-11-03T07:29:41.401Z,2544.00
2022-11-03T07:30:41.102Z,2656.00
2022-11-03T07:31:41.097Z,2768.00
2022-11-03T07:32:41.081Z,2848.00
2022-11-03T07:33:41.291Z,2960.00
2022-11-03T07:34:41.066Z,3080.00
2022-11-03T07:36:13.349Z,3240.00
2022-11-03T07:36:42.326Z,3348.00
2022-11-03T07:37:41.025Z,3372.00
2022-11-03T07:38:41.011Z,3476.00
2022-11-03T07:39:41.002Z,3596.00
2022-11-03T07:40:40.982Z,3640.00
2022-11-03T07:41:40.973Z,3708.00
2022-11-03T07:42:41.242Z,3780.00
2022-11-03T07:43:40.943Z,3752.00
2022-11-03T07:44:40.932Z,3800.00
2022-11-03T07:45:40.937Z,3852.00
2022-11-03T07:46:41.273Z,3940.00
2022-11-03T07:47:40.899Z,3924.00
2022-11-03T07:48:41.201Z,3964.00
2022-11-03T07:49:41.166Z,3996.00
2022-11-03T07:50:40.863Z,4000.00
2022-11-03T07:51:41.996Z,4092.00
2022-11-03T07:52:41.887Z,4092.00
2022-11-03T07:53:40.834Z,4032.00
2022-11-03T07:54:40.823Z,3884.00
2022-11-03T07:55:41.160Z,3760.00
2022-11-03T07:56:40.805Z,3684.00
2022-11-03T07:57:40.805Z,3592.00
2022-11-03T07:58:40.818Z,3496.00
2022-11-03T07:59:40.777Z,3360.00
2022-11-03T08:00:40.763Z,3284.00
2022-11-03T08:01:40.869Z,3232.00
2022-11-03T08:02:41.025Z,3216.00
2022-11-03T08:03:40.725Z,3224.00
2022-11-03T08:04:40.706Z,3240.00
2022-11-03T08:05:40.732Z,3288.00
2022-11-03T08:06:40.990Z,3236.00
2022-11-03T08:07:41.477Z,3168.00
2022-11-03T08:08:40.687Z,3108.00
2022-11-03T08:09:40.676Z,3056.00
2022-11-03T08:10:40.646Z,3012.00
2022-11-03T08:11:40.639Z,2988.00
2022-11-03T08:12:40.907Z,2984.00
2022-11-03T08:13:40.621Z,3004.00
2022-11-03T08:14:40.608Z,3052.00
2022-11-03T08:15:40.653Z,3108.00
2022-11-03T08:16:40.587Z,3176.00
2022-11-03T08:17:40.586Z,3232.00
2022-11-03T08:18:40.833Z,3284.00
2022-11-03T08:19:40.829Z,3336.00
2022-11-03T08:20:40.539Z,3372.00
2022-11-03T08:21:40.538Z,3416.00
2022-11-03T08:22:46.134Z,3468.00
2022-11-03T08:23:46.130Z,3516.00
2022-11-03T08:24:41.485Z,3572.00
2022-11-03T08:25:40.520Z,3628.00
2022-11-03T08:26:40.762Z,3688.00
2022-11-03T08:27:40.520Z,3752.00
2022-11-03T08:28:40.718Z,3816.00
2022-11-03T08:29:40.452Z,3864.00
2022-11-03T08:30:40.418Z,3916.00
2022-11-03T08:31:40.433Z,3944.00
2022-11-03T08:32:40.676Z,3976.00
2022-11-03T08:33:40.407Z,4012.00
2022-11-03T08:34:40.370Z,4052.00
2022-11-03T08:35:40.435Z,4100.00
2022-11-03T08:36:40.649Z,4164.00
2022-11-03T08:37:40.370Z,4224.00
2022-11-03T08:38:40.631Z,4308.00
2022-11-03T08:39:40.382Z,4404.00
2022-11-03T08:40:41.373Z,4476.00
2022-11-03T08:41:40.578Z,4556.00
2022-11-03T08:42:40.303Z,4656.00
2022-11-03T08:43:40.286Z,4716.00
2022-11-03T08:44:40.262Z,4784.00
2022-11-03T08:45:40.540Z,4788.00
2022-11-03T08:46:40.275Z,4940.00
2022-11-03T08:47:40.244Z,4872.00
2022-11-03T08:48:40.982Z,4932.00
2022-11-03T08:49:40.221Z,4928.00
2022-11-03T08:50:40.205Z,4932.00
2022-11-03T08:51:44.460Z,5016.00
2022-11-03T08:52:41.252Z,4988.00
2022-11-03T08:53:40.162Z,5000.00
2022-11-03T08:54:40.160Z,4972.00
2022-11-03T08:55:40.963Z,4952.00
2022-11-03T08:56:40.205Z,4944.00
2022-11-03T08:57:40.122Z,4920.00
2022-11-03T08:58:40.140Z,4928.00
2022-11-03T08:59:40.377Z,4948.00
2022-11-03T09:00:41.833Z,4964.00
2022-11-03T09:01:40.181Z,5004.00
2022-11-03T09:02:41.336Z,5012.00
2022-11-03T09:03:40.107Z,5032.00
2022-11-03T09:04:40.044Z,5080.00
2022-11-03T09:05:40.309Z,5220.00
2022-11-03T09:06:40.083Z,5220.00
2022-11-03T09:10:42.651Z,5284.00
2022-11-03T09:11:40.978Z,5228.00
2022-11-03T09:12:40.882Z,5136.00
2022-11-03T09:13:39.971Z,5020.00
2022-11-03T09:14:40.465Z,4908.00
2022-11-03T09:15:39.997Z,4832.00
2022-11-03T09:16:40.515Z,4792.00
2022-11-03T09:17:41.964Z,4800.00
2022-11-03T09:18:39.939Z,4820.00
2022-11-03T09:19:39.865Z,4836.00
2022-11-03T09:20:41.139Z,4832.00
2022-11-03T09:21:39.886Z,4808.00
2022-11-03T09:22:39.832Z,4784.00
2022-11-03T09:23:39.836Z,4768.00
2022-11-03T09:24:39.836Z,4752.00
2022-11-03T09:25:40.636Z,4740.00
2022-11-03T09:26:39.807Z,4664.00
2022-11-03T09:27:40.067Z,4616.00
2022-11-03T09:28:40.767Z,4572.00
2022-11-03T09:30:06.673Z,4568.00
2022-11-03T09:30:41.695Z,4584.00
2022-11-03T09:31:40.327Z,4596.00
2022-11-03T09:32:39.728Z,4632.00
2022-11-03T09:33:39.753Z,4644.00
2022-11-03T09:34:39.723Z,4656.00
2022-11-03T09:35:39.706Z,4672.00
2022-11-03T09:36:39.728Z,4704.00
2022-11-03T09:37:43.519Z,4744.00
2022-11-03T09:38:39.659Z,4804.00
2022-11-03T09:39:40.832Z,4876.00
2022-11-03T09:40:39.707Z,4960.00
2022-11-03T09:41:57.101Z,5036.00
2022-11-03T09:42:41.578Z,5108.00
2022-11-03T09:43:39.622Z,5172.00
2022-11-03T09:44:39.599Z,5236.00
2022-11-03T09:45:39.605Z,5296.00
2022-11-03T09:46:39.600Z,5344.00
2022-11-03T09:47:39.552Z,5396.00
2022-11-03T09:48:39.551Z,5444.00
2022-11-03T09:49:40.390Z,5480.00
2022-11-03T09:50:39.524Z,5500.00
2022-11-03T09:51:39.591Z,5492.00
2022-11-03T09:52:39.801Z,5492.00
2022-11-03T09:53:39.482Z,5460.00
2022-11-03T09:54:39.532Z,5456.00
2022-11-03T09:55:39.535Z,5492.00
2022-11-03T09:56:39.631Z,5564.00
2022-11-03T09:57:39.431Z,5644.00
2022-11-03T09:58:39.480Z,5712.00
2022-11-03T09:59:39.427Z,5744.00
2022-11-03T10:00:39.463Z,5752.00
2022-11-03T10:01:40.353Z,5708.00
2022-11-03T10:02:40.118Z,5644.00
2022-11-03T10:03:39.363Z,5560.00
2022-11-03T10:04:39.372Z,5452.00
2022-11-03T10:05:39.374Z,5336.00
2022-11-03T10:06:39.363Z,5200.00
2022-11-03T10:07:39.373Z,5068.00
2022-11-03T10:08:39.600Z,4936.00
2022-11-03T10:09:39.301Z,4800.00
2022-11-03T10:10:39.583Z,4684.00
2022-11-03T10:11:39.596Z,4600.00
2022-11-03T10:12:39.294Z,4576.00
2022-11-03T10:13:40.126Z,4616.00
2022-11-03T10:14:39.927Z,4708.00
2022-11-03T10:15:39.224Z,4800.00
2022-11-03T10:16:39.275Z,4880.00
2022-11-03T10:17:39.514Z,4940.00
2022-11-03T10:18:39.195Z,4972.00
2022-11-03T10:19:40.064Z,4968.00
2022-11-03T10:20:39.197Z,4932.00
2022-11-03T10:21:39.167Z,4860.00
2022-11-03T10:22:41.135Z,4764.00
2022-11-03T10:23:39.177Z,4668.00
2022-11-03T10:24:40.099Z,4596.00
2022-11-03T10:25:39.995Z,4552.00
2022-11-03T10:26:39.904Z,4512.00
2022-11-03T10:27:39.420Z,4496.00
2022-11-03T10:28:40.226Z,4488.00
2022-11-03T10:29:41.354Z,4496.00
2022-11-03T10:30:57.933Z,4516.00
2022-11-03T10:31:40.580Z,4580.00
2022-11-03T10:32:39.847Z,4660.00
2022-11-03T10:33:39.642Z,4748.00
2022-11-03T10:34:40.170Z,4840.00
2022-11-03T10:35:40.058Z,4912.00
2022-11-03T10:36:39.969Z,4948.00
2022-11-03T10:37:39.876Z,4952.00
2022-11-03T10:38:39.780Z,4936.00
2022-11-03T10:39:39.729Z,4912.00
2022-11-03T10:40:47.790Z,4860.00
2022-11-03T10:41:42.018Z,4816.00
2022-11-03T10:42:39.900Z,4740.00
2022-11-03T10:43:39.811Z,4656.00
2022-11-03T10:44:39.693Z,4584.00
2022-11-03T10:45:40.137Z,4544.00
2022-11-03T10:46:55.271Z,4508.00
2022-11-03T10:47:40.960Z,4468.00
2022-11-03T10:48:38.898Z,4412.00
2022-11-03T10:49:43.631Z,4348.00
2022-11-03T10:50:39.782Z,4292.00
2022-11-03T10:51:41.788Z,4224.00
2022-11-03T10:52:39.380Z,4144.00
2022-11-03T10:53:39.862Z,4044.00
2022-11-03T10:54:39.795Z,3924.00
2022-11-03T10:56:39.364Z,3724.00
2022-11-03T10:57:39.492Z,3668.00
2022-11-03T10:58:40.081Z,3624.00
2022-11-03T10:59:39.804Z,3592.00
2022-11-03T11:00:39.765Z,3568.00
2022-11-03T11:01:42.998Z,3544.00
2022-11-03T11:02:39.548Z,3516.00
2022-11-03T11:03:43.203Z,3488.00
2022-11-03T11:04:39.547Z,3464.00
2022-11-03T11:05:42.754Z,3448.00
2022-11-03T11:06:39.654Z,3440.00
2022-11-03T11:07:39.577Z,3440.00
2022-11-03T11:08:39.592Z,3436.00
2022-11-03T11:09:42.624Z,3424.00
2022-11-03T11:10:39.786Z,3408.00
2022-11-03T11:11:39.674Z,3404.00
2022-11-03T11:12:39.602Z,3408.00
2022-11-03T11:13:39.492Z,3416.00
2022-11-03T11:14:39.631Z,3436.00
2022-11-03T11:15:39.296Z,3448.00
2022-11-03T11:16:39.625Z,3456.00
2022-11-03T11:17:38.545Z,3488.00
2022-11-03T11:18:38.513Z,3540.00
2022-11-03T11:19:38.516Z,3628.00
2022-11-03T11:20:38.587Z,3716.00
2022-11-03T11:21:38.465Z,3788.00
2022-11-03T11:22:38.687Z,3848.00
2022-11-03T11:23:38.785Z,3900.00
2022-11-03T11:24:38.547Z,3916.00
2022-11-03T11:25:39.346Z,3900.00
2022-11-03T11:26:38.416Z,3864.00
2022-11-03T11:27:38.415Z,3808.00
2022-11-03T11:28:39.401Z,3764.00
2022-11-03T11:29:39.066Z,3748.00
2022-11-03T11:30:38.374Z,3780.00
2022-11-03T11:31:38.508Z,3836.00
2022-11-03T11:32:39.145Z,3900.00
2022-11-03T11:33:38.336Z,3920.00
2022-11-03T11:34:39.517Z,3876.00
2022-11-03T11:35:39.432Z,3764.00
2022-11-03T11:36:38.316Z,3648.00
2022-11-03T11:37:38.335Z,3520.00
2022-11-03T11:38:38.569Z,3396.00
2022-11-03T11:39:39.041Z,3288.00
2022-11-03T11:40:39.439Z,3200.00
2022-11-03T11:41:39.364Z,3132.00
2022-11-03T11:42:38.892Z,3028.00
2022-11-03T11:43:38.891Z,2908.00
2022-11-03T11:44:38.477Z,2780.00
2022-11-03T11:45:38.200Z,2656.00
2022-11-03T11:47:48.465Z,2356.00
2022-11-03T11:48:48.386Z,2244.00
2022-11-03T11:49:48.372Z,2160.00
2022-11-03T11:50:48.373Z,2064.00
2022-11-03T11:51:48.362Z,2016.00
2022-11-03T11:52:48.348Z,2024.00
2022-11-03T11:53:58.801Z,2064.00
2022-11-03T11:54:49.334Z,2104.00
2022-11-03T11:55:48.317Z,2144.00
2022-11-03T11:56:48.315Z,2168.00
2022-11-03T11:57:48.293Z,2180.00
2022-11-03T11:58:48.282Z,2176.00
2022-11-03T11:59:48.276Z,2156.00
2022-11-03T12:00:48.264Z,2116.00
2022-11-03T12:01:48.335Z,2076.00
2022-11-03T12:02:48.254Z,2060.00
2022-11-03T12:03:48.282Z,2088.00
2022-11-03T12:04:48.215Z,2132.00
2022-11-03T12:05:48.217Z,2164.00
2022-11-03T12:06:48.247Z,2192.00
2022-11-03T12:07:48.175Z,2228.00
2022-11-03T12:08:48.194Z,2260.00
2022-11-03T12:09:48.167Z,2288.00
2022-11-03T12:10:48.201Z,2312.00
2022-11-03T12:11:49.223Z,2344.00
2022-11-03T12:12:48.138Z,2392.00
2022-11-03T12:13:48.108Z,2472.00
2022-11-03T12:14:48.112Z,2548.00
2022-11-03T12:15:48.103Z,2592.00
2022-11-03T12:16:48.097Z,2604.00
2022-11-03T12:17:48.075Z,2588.00
2022-11-03T12:18:50.653Z,2596.00
2022-11-03T12:19:48.058Z,2636.00
2022-11-03T12:20:48.038Z,2712.00
2022-11-03T12:21:48.057Z,2792.00
2022-11-03T12:22:48.009Z,2852.00
2022-11-03T12:23:48.013Z,2892.00
2022-11-03T12:24:47.998Z,2900.00
2022-11-03T12:25:47.986Z,2860.00
2022-11-03T12:26:47.990Z,2788.00
2022-11-03T12:27:47.971Z,2700.00
2022-11-03T12:28:47.949Z,2608.00
2022-11-03T12:29:47.938Z,2504.00
2022-11-03T12:30:47.962Z,2396.00
2022-11-03T12:31:47.941Z,2304.00
2022-11-03T12:32:47.900Z,2220.00
2022-11-03T12:33:47.910Z,2188.00
2022-11-03T12:34:47.883Z,2168.00
2022-11-03T12:35:47.883Z,2136.00
2022-11-03T12:36:51.808Z,2072.00
2022-11-03T12:37:48.850Z,1988.00
2022-11-03T12:38:47.840Z,1904.00
2022-11-03T12:39:47.913Z,1840.00
2022-11-03T12:40:47.821Z,1808.00
2022-11-03T12:41:47.823Z,1796.00
2022-11-03T12:42:47.788Z,1816.00
2022-11-03T12:43:47.811Z,1848.00
2022-11-03T12:44:47.772Z,1884.00
2022-11-03T12:45:47.762Z,1912.00
2022-11-03T12:46:47.884Z,1948.00
2022-11-03T12:47:47.957Z,1964.00